Главная страница
METAR-TAF:

METAR-TAF

Аэропорты :

Иодзима, Япония

широта: 24-47N, долгота: 141-19E, высота над уровнем моря: 113 м

Текущие метеонаблюдения

Эта сводка был подготовлена 2 часа и 17 минут назад, в 12:00 UTC
Ветер 16 Узел от северный
Температура 19°C
Влажность 64%
Давление 1012 hPa
Видимость 10 км и более
Отдельные облака на высоте 2500 фута

METAR: RJAW 261200Z 35016KT 9999 SCT025 19/12 Q1012 RMK 3CU025 A2991 WIND BY EQPT/25

Время: 23:17 (14:17 UTC)


TAF: отсутствует

Метеонаблюдения и прогнозы для более 4000 аэропортов (сводки METAR и TAF).

Имеющиеся станции представлены на карте желтыми и красными точками.

Чтобы увидеть название станции, наведите на нее мышь.

Затем щелкните, чтобы увидеть метеонаблюдения и метеопрогнозы.

Управление картой: чтобы увеличить масштаб, щелкните зеленые кнопки с черным крестиком; чтобы уменьшить масштаб, щелкните зеленую кнопку с тире; для просмотра соседних карт щелкайте зеленые стрелки.


METAR-TAF: